Time;durP1;ratioP1;P1;durP2;ratioP2;P2;SDS_P1;SDS_P2;PMS_P1;PMS_P2;Temp;Humidity;BMP_temperature;BMP_pressure;BME280_temperature;BME280_humidity;BME280_pressure;Samples;Min_cycle;Max_cycle;Signal;HPM_P1;HPM_P2
2021/10/07 00:00:54;;;;;;;1.40;1.30;;;12.00;99.90;;;;;;4989268;28;20018;-69
2021/10/07 00:03:21;;;;;;;2.35;1.50;;;12.00;99.90;;;;;;4989223;28;20026;-68
2021/10/07 00:05:47;;;;;;;2.20;1.35;;;12.00;99.90;;;;;;4989184;28;20027;-68
2021/10/07 00:08:12;;;;;;;2.30;1.30;;;12.00;99.90;;;;;;4988643;28;20475;-68
2021/10/07 00:10:38;;;;;;;1.85;1.52;;;12.00;99.90;;;;;;4989318;28;20039;-69
2021/10/07 00:13:04;;;;;;;1.25;1.15;;;12.00;99.90;;;;;;4988685;28;20176;-69
2021/10/07 00:15:29;;;;;;;1.50;1.40;;;12.00;99.90;;;;;;4992547;28;20030;-68
2021/10/07 00:17:57;;;;;;;1.25;1.15;;;12.00;99.90;;;;;;4991947;28;20056;-68
2021/10/07 00:20:23;;;;;;;2.55;1.23;;;12.00;99.90;;;;;;4992407;28;20083;-68
2021/10/07 00:22:49;;;;;;;2.70;1.30;;;12.00;99.90;;;;;;4991969;28;20805;-69
2021/10/07 00:25:16;;;;;;;3.42;1.27;;;12.00;99.90;;;;;;4992074;28;20030;-68
2021/10/07 00:27:42;;;;;;;2.10;1.60;;;12.00;99.90;;;;;;4991924;28;20037;-68
2021/10/07 00:30:14;;;;;;;1.42;1.27;;;12.00;99.90;;;;;;4991564;28;20048;-69
2021/10/07 00:32:48;;;;;;;1.80;1.38;;;12.00;99.90;;;;;;4991044;28;20443;-69
2021/10/07 00:40:42;;;;;;;1.40;1.30;;;12.00;99.90;;;;;;4991855;28;20029;-68
2021/10/07 00:43:07;;;;;;;1.77;1.30;;;12.00;99.90;;;;;;4991974;28;20022;-68
2021/10/07 00:45:33;;;;;;;1.58;1.48;;;12.00;99.90;;;;;;4991901;28;20482;-68
2021/10/07 00:47:59;;;;;;;2.50;1.80;;;12.00;99.90;;;;;;4991581;28;20049;-68
2021/10/07 00:50:25;;;;;;;1.60;1.50;;;12.00;99.90;;;;;;4991912;28;20367;-68
2021/10/07 00:52:50;;;;;;;1.55;1.45;;;12.00;99.90;;;;;;4991470;28;20030;-68
2021/10/07 00:55:16;;;;;;;2.22;1.60;;;12.00;99.90;;;;;;4991428;28;20058;-68
2021/10/07 00:57:43;;;;;;;1.90;1.42;;;12.00;99.90;;;;;;4991626;28;20029;-68
2021/10/07 01:00:09;;;;;;;2.15;1.42;;;12.00;99.90;;;;;;4991528;28;20019;-68
2021/10/07 01:02:36;;;;;;;6.03;1.35;;;12.00;99.90;;;;;;4991692;28;20045;-68
2021/10/07 01:05:02;;;;;;;2.90;1.38;;;12.00;99.90;;;;;;4991314;28;20022;-67
2021/10/07 01:07:28;;;;;;;1.67;1.58;;;12.00;99.90;;;;;;4991420;28;20033;-67
2021/10/07 01:09:54;;;;;;;5.30;1.45;;;12.00;99.90;;;;;;4991152;28;20042;-67
2021/10/07 01:12:20;;;;;;;1.60;1.50;;;12.00;99.90;;;;;;4991438;28;20027;-67
2021/10/07 01:14:56;;;;;;;2.40;1.60;;;12.00;99.90;;;;;;4991373;28;20030;-67
2021/10/07 01:17:27;;;;;;;1.73;1.40;;;12.00;99.90;;;;;;4991274;28;20033;-67
2021/10/07 01:19:56;;;;;;;2.28;1.63;;;12.00;99.90;;;;;;4991271;28;20479;-68
2021/10/07 01:22:24;;;;;;;1.80;1.60;;;12.00;99.90;;;;;;4991180;28;20026;-67
2021/10/07 01:24:50;;;;;;;2.08;1.40;;;12.00;99.90;;;;;;4990922;28;20041;-67
2021/10/07 01:27:18;;;;;;;1.48;1.38;;;12.00;99.90;;;;;;4991027;28;20037;-67
2021/10/07 01:29:43;;;;;;;2.33;1.55;;;12.10;99.90;;;;;;4990949;28;20490;-67
2021/10/07 01:32:09;;;;;;;2.17;1.80;;;12.10;99.90;;;;;;4990966;28;20022;-67
2021/10/07 01:34:36;;;;;;;1.80;1.60;;;12.10;99.90;;;;;;4991219;28;20523;-67
2021/10/07 01:37:02;;;;;;;2.90;1.50;;;12.10;99.90;;;;;;4991084;28;20410;-67
2021/10/07 01:39:29;;;;;;;1.50;1.40;;;12.00;99.90;;;;;;4990821;28;20737;-67
2021/10/07 01:41:55;;;;;;;3.97;1.58;;;12.10;99.90;;;;;;4990925;28;20026;-67
2021/10/07 01:44:23;;;;;;;2.28;1.80;;;12.10;99.90;;;;;;4991134;28;20030;-67
2021/10/07 01:46:50;;;;;;;1.85;1.58;;;12.10;99.90;;;;;;4990983;28;20539;-67
2021/10/07 01:49:16;;;;;;;1.90;1.35;;;12.10;99.90;;;;;;4989082;28;20516;-67
2021/10/07 01:51:42;;;;;;;1.80;1.70;;;12.10;99.90;;;;;;4989432;28;20117;-67
2021/10/07 01:54:08;;;;;;;2.55;1.40;;;12.10;99.90;;;;;;4989228;28;20056;-68
2021/10/07 01:56:34;;;;;;;1.88;1.77;;;12.10;99.90;;;;;;4990575;28;20544;-67
2021/10/07 01:59:00;;;;;;;1.50;1.40;;;12.10;99.90;;;;;;4990386;28;20026;-67
2021/10/07 02:01:26;;;;;;;1.52;1.33;;;12.00;99.90;;;;;;4990899;28;20027;-67
2021/10/07 02:03:52;;;;;;;2.38;1.50;;;12.10;99.90;;;;;;4990662;28;20053;-67
2021/10/07 02:06:17;;;;;;;2.35;1.70;;;12.10;99.90;;;;;;4979386;28;20031;-67
2021/10/07 02:08:43;;;;;;;1.83;1.45;;;12.10;99.90;;;;;;4990901;28;20039;-67
2021/10/07 02:11:10;;;;;;;1.75;1.60;;;12.10;99.90;;;;;;4990301;28;20046;-67
2021/10/07 02:13:37;;;;;;;1.65;1.52;;;12.10;99.90;;;;;;4990557;28;20030;-67
2021/10/07 02:16:03;;;;;;;2.00;1.77;;;12.10;99.90;;;;;;4990464;28;20033;-68
2021/10/07 02:18:28;;;;;;;2.00;1.80;;;12.10;99.90;;;;;;4990277;28;20037;-67
2021/10/07 02:20:54;;;;;;;1.80;1.70;;;12.10;99.90;;;;;;4990393;28;20527;-67
2021/10/07 02:23:21;;;;;;;1.85;1.75;;;12.10;99.90;;;;;;4990257;28;20041;-67
2021/10/07 02:52:27;;;;;;;2.95;2.03;;;12.10;99.90;;;;;;4989881;28;20038;-68
2021/10/07 02:54:53;;;;;;;2.47;2.00;;;12.10;99.90;;;;;;4989567;28;20035;-67
2021/10/07 02:57:19;;;;;;;3.65;1.90;;;12.10;99.90;;;;;;4989616;28;20053;-67
2021/10/07 02:59:44;;;;;;;2.03;1.67;;;12.00;99.90;;;;;;4989786;28;20026;-67
2021/10/07 03:02:10;;;;;;;2.28;1.85;;;12.10;99.90;;;;;;4989778;28;20614;-67
2021/10/07 03:04:36;;;;;;;3.17;1.77;;;12.10;99.90;;;;;;4989686;28;20029;-67
2021/10/07 03:07:02;;;;;;;3.97;1.80;;;12.00;99.90;;;;;;4989826;28;20109;-68
2021/10/07 03:09:27;;;;;;;3.50;2.17;;;12.00;99.90;;;;;;4989365;28;20045;-67
2021/10/07 03:11:53;;;;;;;4.30;1.73;;;12.10;99.90;;;;;;4982811;28;20015;-67
2021/10/07 03:14:19;;;;;;;3.17;1.92;;;12.00;99.90;;;;;;4983084;28;20034;-67
2021/10/07 03:16:45;;;;;;;2.63;1.98;;;12.00;99.90;;;;;;4989316;28;20072;-67
2021/10/07 03:19:12;;;;;;;1.90;1.70;;;12.00;99.90;;;;;;4988309;28;20052;-67
2021/10/07 03:21:38;;;;;;;2.40;2.20;;;12.00;99.90;;;;;;4989472;28;20057;-67
2021/10/07 03:24:05;;;;;;;2.35;1.80;;;12.10;99.90;;;;;;4989573;28;20027;-68
2021/10/07 03:26:31;;;;;;;3.20;1.92;;;12.10;99.90;;;;;;4989267;28;20027;-68
2021/10/07 03:28:57;;;;;;;3.10;1.90;;;12.10;99.90;;;;;;4989427;28;20034;-68
2021/10/07 03:31:23;;;;;;;2.33;1.80;;;12.10;99.90;;;;;;4989422;28;20029;-68
2021/10/07 03:33:49;;;;;;;2.80;2.00;;;12.10;99.90;;;;;;4989513;28;20054;-68
2021/10/07 03:36:14;;;;;;;2.20;1.60;;;12.10;99.90;;;;;;4975928;28;20523;-67
2021/10/07 03:38:40;;;;;;;3.13;1.95;;;12.10;99.90;;;;;;4988980;28;20031;-67
2021/10/07 03:41:06;;;;;;;3.17;2.00;;;12.10;99.90;;;;;;4989264;28;20023;-66
2021/10/07 03:43:31;;;;;;;2.25;2.00;;;12.10;99.90;;;;;;4989137;28;20027;-67
2021/10/07 03:45:57;;;;;;;2.15;1.95;;;12.10;99.90;;;;;;4989385;28;20027;-67
2021/10/07 03:48:23;;;;;;;3.85;2.00;;;12.10;99.90;;;;;;4989420;28;20033;-67
2021/10/07 03:50:48;;;;;;;3.50;2.03;;;12.10;99.90;;;;;;4992790;28;20079;-67
2021/10/07 03:53:14;;;;;;;2.40;2.20;;;12.10;99.90;;;;;;4992778;28;20022;-67
2021/10/07 03:55:40;;;;;;;2.70;2.40;;;12.10;99.90;;;;;;4992352;28;20058;-67
2021/10/07 03:58:06;;;;;;;2.45;2.03;;;12.10;99.90;;;;;;4992534;28;20588;-67
2021/10/07 04:00:31;;;;;;;2.42;2.22;;;12.10;99.90;;;;;;4992255;28;20029;-68
2021/10/07 04:03:01;;;;;;;2.83;2.10;;;12.10;99.90;;;;;;4992473;28;20042;-68
2021/10/07 04:05:27;;;;;;;2.92;1.98;;;12.10;99.90;;;;;;4992570;28;20117;-68
2021/10/07 04:07:53;;;;;;;3.88;2.17;;;12.10;99.90;;;;;;4992238;28;20126;-68
2021/10/07 04:10:19;;;;;;;2.38;2.17;;;12.10;99.90;;;;;;4992227;28;20045;-68
2021/10/07 04:12:44;;;;;;;3.00;2.20;;;12.10;99.90;;;;;;4990767;28;20027;-68
2021/10/07 04:15:10;;;;;;;2.35;2.15;;;12.10;99.90;;;;;;4992180;28;20606;-68
2021/10/07 04:17:36;;;;;;;4.72;2.40;;;12.10;99.90;;;;;;4991974;28;20045;-68
2021/10/07 04:20:02;;;;;;;5.97;2.55;;;12.10;99.90;;;;;;4992184;28;20025;-67
2021/10/07 04:22:27;;;;;;;3.97;2.20;;;12.10;99.90;;;;;;4992317;28;20026;-68
2021/10/07 04:24:55;;;;;;;5.50;2.33;;;12.10;99.90;;;;;;4992084;28;20489;-68
2021/10/07 04:27:21;;;;;;;3.63;2.42;;;12.10;99.90;;;;;;4992236;28;20061;-68
2021/10/07 04:29:47;;;;;;;3.03;2.50;;;12.10;99.90;;;;;;4991895;28;20493;-68
2021/10/07 04:32:13;;;;;;;2.75;2.30;;;12.10;99.90;;;;;;4992186;28;20045;-67
2021/10/07 04:34:38;;;;;;;3.50;3.13;;;12.10;99.90;;;;;;4992018;28;20034;-70
2021/10/07 04:37:05;;;;;;;3.45;2.75;;;12.10;99.90;;;;;;4991839;28;20106;-68
2021/10/07 04:39:31;;;;;;;3.25;2.53;;;12.10;99.90;;;;;;4991556;28;20023;-69
2021/10/07 04:41:57;;;;;;;2.30;2.10;;;12.10;99.90;;;;;;4991887;28;20051;-69
2021/10/07 04:44:22;;;;;;;2.65;2.45;;;12.30;99.90;;;;;;4991560;28;20030;-69
2021/10/07 04:46:48;;;;;;;2.78;2.30;;;12.30;99.90;;;;;;4991659;28;20523;-69
2021/10/07 04:49:14;;;;;;;5.30;2.70;;;12.30;99.90;;;;;;4991357;28;20607;-68
2021/10/07 04:51:40;;;;;;;4.75;2.28;;;12.30;99.90;;;;;;4991551;28;20026;-69
2021/10/07 04:54:06;;;;;;;3.28;2.30;;;12.30;99.90;;;;;;4990331;28;20117;-69
2021/10/07 04:56:31;;;;;;;2.33;2.13;;;12.20;99.90;;;;;;4991181;28;20047;-70
2021/10/07 04:58:57;;;;;;;2.30;1.98;;;12.20;99.90;;;;;;4990706;28;20029;-69
2021/10/07 05:01:23;;;;;;;4.00;2.05;;;12.20;99.90;;;;;;4991388;28;20030;-68
2021/10/07 05:03:50;;;;;;;5.43;2.38;;;12.20;99.90;;;;;;4991077;28;20028;-68
2021/10/07 05:06:16;;;;;;;2.08;1.88;;;12.20;99.90;;;;;;4991529;28;20058;-68
2021/10/07 05:08:42;;;;;;;2.33;1.90;;;12.20;99.90;;;;;;4990639;28;20035;-68
2021/10/07 05:11:08;;;;;;;4.55;1.90;;;12.20;99.90;;;;;;4991304;28;20023;-68
2021/10/07 05:13:34;;;;;;;3.67;2.10;;;12.20;99.90;;;;;;4991344;28;20111;-69
2021/10/07 05:15:59;;;;;;;2.55;1.83;;;12.20;99.90;;;;;;4991198;28;20523;-69
2021/10/07 05:18:25;;;;;;;1.80;1.70;;;12.20;99.90;;;;;;4990965;28;20083;-69
2021/10/07 05:20:51;;;;;;;2.20;2.00;;;12.10;99.90;;;;;;4991038;28;20084;-69
2021/10/07 05:23:17;;;;;;;2.10;1.85;;;12.10;99.90;;;;;;4991099;28;20034;-69
2021/10/07 05:25:43;;;;;;;2.63;1.90;;;12.20;99.90;;;;;;4989575;28;20038;-69
2021/10/07 05:28:09;;;;;;;3.20;1.65;;;12.20;99.90;;;;;;4990997;28;20034;-69
2021/10/07 05:30:35;;;;;;;1.95;1.75;;;12.20;99.90;;;;;;4990788;28;20509;-70
2021/10/07 05:33:01;;;;;;;2.00;1.75;;;12.10;99.90;;;;;;4991101;28;20057;-68
2021/10/07 05:35:27;;;;;;;3.83;2.25;;;12.20;99.90;;;;;;4990713;28;20037;-69
2021/10/07 05:37:53;;;;;;;4.18;1.50;;;12.40;99.90;;;;;;4990720;28;20030;-70
2021/10/07 05:40:19;;;;;;;2.58;1.60;;;12.40;99.90;;;;;;4990554;28;20026;-70
2021/10/07 05:42:45;;;;;;;2.10;1.52;;;12.30;99.90;;;;;;4990670;28;20026;-70
2021/10/07 05:45:11;;;;;;;1.45;1.35;;;12.30;99.90;;;;;;4990929;28;20113;-70
2021/10/07 05:47:40;;;;;;;2.97;1.60;;;12.20;99.90;;;;;;4990641;28;20400;-70
2021/10/07 05:50:08;;;;;;;4.15;1.85;;;12.20;99.90;;;;;;4990795;28;20130;-70
2021/10/07 05:52:34;;;;;;;3.70;1.70;;;12.20;99.90;;;;;;4990529;28;20026;-70
2021/10/07 05:55:00;;;;;;;4.32;1.58;;;12.20;99.90;;;;;;4990421;28;20516;-70
2021/10/07 05:57:26;;;;;;;1.85;1.40;;;12.20;99.90;;;;;;4990308;28;20035;-70
2021/10/07 05:59:52;;;;;;;2.30;1.25;;;12.20;99.90;;;;;;4990166;28;20026;-70
2021/10/07 06:02:18;;;;;;;2.25;1.65;;;12.20;99.90;;;;;;4990632;28;20041;-70
2021/10/07 06:04:44;;;;;;;1.33;1.10;;;12.20;99.90;;;;;;4990337;28;20510;-70
2021/10/07 06:07:10;;;;;;;1.08;1.00;;;12.20;99.90;;;;;;4990481;28;20033;-70
2021/10/07 06:09:35;;;;;;;2.47;1.45;;;12.20;99.90;;;;;;4990176;28;20031;-70
2021/10/07 06:12:02;;;;;;;1.75;1.23;;;12.10;99.90;;;;;;4989486;28;20025;-69
2021/10/07 06:14:28;;;;;;;5.80;1.27;;;12.20;99.90;;;;;;4989071;28;20023;-69
2021/10/07 06:16:54;;;;;;;1.98;1.05;;;12.20;99.90;;;;;;4987432;28;20029;-69
2021/10/07 06:19:22;;;;;;;1.67;0.95;;;12.10;99.90;;;;;;4989817;28;20061;-69
2021/10/07 06:21:52;;;;;;;6.38;1.48;;;12.20;99.90;;;;;;4989932;28;20014;-67
2021/10/07 06:24:19;;;;;;;1.80;1.10;;;12.60;99.90;;;;;;4990221;28;20022;-69
2021/10/07 06:26:45;;;;;;;1.20;0.90;;;13.20;99.90;;;;;;4989949;28;20026;-70
2021/10/07 06:29:12;;;;;;;1.45;0.82;;;13.00;99.90;;;;;;4989930;28;20095;-70
2021/10/07 06:31:38;;;;;;;0.70;0.70;;;12.80;99.90;;;;;;4989767;28;20058;-70
2021/10/07 06:34:05;;;;;;;2.22;0.93;;;12.60;99.90;;;;;;4989746;28;20041;-69
2021/10/07 06:36:31;;;;;;;0.70;0.60;;;12.50;99.90;;;;;;4989931;28;20036;-69
2021/10/07 06:38:56;;;;;;;1.15;0.80;;;12.40;99.90;;;;;;4989926;28;20029;-69
2021/10/07 06:41:22;;;;;;;0.63;0.60;;;12.40;99.90;;;;;;4990628;28;20474;-70
2021/10/07 06:43:49;;;;;;;2.22;0.80;;;12.40;99.90;;;;;;4989788;28;20038;-69
2021/10/07 06:46:15;;;;;;;1.23;0.80;;;12.40;99.90;;;;;;4989982;28;20022;-70
2021/10/07 06:48:41;;;;;;;2.25;0.70;;;12.30;99.90;;;;;;4988246;28;20031;-70
2021/10/07 06:51:11;;;;;;;0.77;0.60;;;12.30;99.90;;;;;;4989732;28;20099;-68
2021/10/07 06:53:39;;;;;;;0.65;0.60;;;12.50;99.90;;;;;;4989855;28;20111;-70
2021/10/07 06:56:06;;;;;;;1.88;1.00;;;13.10;99.90;;;;;;4989400;28;20183;-69
2021/10/07 06:58:32;;;;;;;1.48;0.60;;;13.10;99.90;;;;;;4989407;28;20071;-72
2021/10/07 07:00:58;;;;;;;0.50;0.50;;;13.50;99.90;;;;;;4985863;28;20558;-71
2021/10/07 07:03:24;;;;;;;0.90;0.57;;;13.30;99.90;;;;;;4988924;28;20030;-71
2021/10/07 07:05:49;;;;;;;0.95;0.50;;;13.00;99.90;;;;;;4987739;28;20049;-70
2021/10/07 07:08:15;;;;;;;2.92;0.52;;;12.80;99.90;;;;;;4989597;28;20038;-71
2021/10/07 07:10:41;;;;;;;0.45;0.45;;;12.70;99.90;;;;;;4989502;28;20037;-70
2021/10/07 07:13:07;;;;;;;1.02;0.50;;;12.60;99.90;;;;;;4989322;28;20093;-70
2021/10/07 07:15:34;;;;;;;0.80;0.80;;;12.50;99.90;;;;;;4988059;28;20028;-70
2021/10/07 07:18:00;;;;;;;1.00;0.50;;;12.50;99.90;;;;;;4989377;28;20041;-70
2021/10/07 07:20:26;;;;;;;0.65;0.60;;;12.50;99.90;;;;;;4989290;28;20019;-69
2021/10/07 07:22:52;;;;;;;1.77;0.60;;;12.40;99.90;;;;;;4989149;28;20038;-69
2021/10/07 07:25:17;;;;;;;2.60;0.93;;;12.40;99.90;;;;;;4989516;28;20427;-68
2021/10/07 07:27:44;;;;;;;0.40;0.40;;;12.40;99.90;;;;;;4987996;28;20030;-68
2021/10/07 07:30:11;;;;;;;2.40;0.57;;;12.40;99.90;;;;;;4988989;28;20058;-68
2021/10/07 07:32:37;;;;;;;2.35;0.50;;;12.40;99.90;;;;;;4988902;28;20026;-68
2021/10/07 07:35:05;;;;;;;0.35;0.35;;;12.40;99.90;;;;;;4989168;28;20478;-68
2021/10/07 07:37:31;;;;;;;1.30;0.43;;;12.40;99.90;;;;;;4989355;28;20430;-68
2021/10/07 07:39:57;;;;;;;0.95;0.40;;;12.40;99.90;;;;;;4989143;28;20541;-69
2021/10/07 07:42:24;;;;;;;0.40;0.40;;;12.40;99.90;;;;;;4989436;28;20484;-69
2021/10/07 07:44:50;;;;;;;0.70;0.50;;;12.40;99.90;;;;;;4988927;28;20026;-69
2021/10/07 07:47:16;;;;;;;0.47;0.40;;;12.40;99.90;;;;;;4988973;28;20031;-70
2021/10/07 07:49:42;;;;;;;0.52;0.20;;;12.40;99.90;;;;;;4988833;28;20072;-69
2021/10/07 07:52:09;;;;;;;0.38;0.30;;;12.40;99.90;;;;;;4989220;28;20027;-69
2021/10/07 07:54:37;;;;;;;3.03;0.40;;;12.40;99.90;;;;;;4989010;28;20092;-70
2021/10/07 07:57:03;;;;;;;0.82;0.60;;;12.40;99.90;;;;;;4989197;28;20030;-71
2021/10/07 07:59:29;;;;;;;0.28;0.28;;;12.40;99.90;;;;;;4989086;28;20026;-72
2021/10/07 08:01:55;;;;;;;0.30;0.30;;;12.40;99.90;;;;;;4988186;28;20022;-71
2021/10/07 08:04:20;;;;;;;0.57;0.30;;;12.40;99.90;;;;;;4986811;28;20049;-73
2021/10/07 08:06:46;;;;;;;0.28;0.28;;;12.40;99.90;;;;;;4988521;28;20110;-69
2021/10/07 08:09:12;;;;;;;0.30;0.30;;;12.40;99.90;;;;;;4988147;28;20050;-69
2021/10/07 08:11:39;;;;;;;0.28;0.20;;;12.40;99.90;;;;;;4988104;28;20076;-69
2021/10/07 08:14:09;;;;;;;1.75;0.30;;;12.40;99.90;;;;;;4988307;28;20101;-70
2021/10/07 08:16:35;;;;;;;1.27;0.30;;;12.30;99.90;;;;;;4987903;28;20386;-69
2021/10/07 08:19:01;;;;;;;2.33;0.30;;;12.30;99.90;;;;;;4985713;28;20088;-69
2021/10/07 08:21:27;;;;;;;2.38;0.30;;;12.40;99.90;;;;;;4988486;28;20528;-69
2021/10/07 08:23:54;;;;;;;0.30;0.30;;;12.40;99.90;;;;;;4988657;28;20095;-69
2021/10/07 08:26:20;;;;;;;0.20;0.20;;;12.40;99.90;;;;;;4988497;28;20030;-69
2021/10/07 08:28:46;;;;;;;2.38;0.30;;;12.50;99.90;;;;;;4985904;28;20402;-69
2021/10/07 08:31:13;;;;;;;0.65;0.20;;;12.50;99.90;;;;;;4987878;28;20038;-69
2021/10/07 08:33:40;;;;;;;0.30;0.30;;;12.60;99.90;;;;;;4988396;28;20477;-69
2021/10/07 08:36:06;;;;;;;0.20;0.20;;;12.60;99.90;;;;;;4991577;28;20026;-69
2021/10/07 08:38:32;;;;;;;0.20;0.20;;;12.60;99.90;;;;;;4991891;28;20054;-69
2021/10/07 08:40:59;;;;;;;0.30;0.30;;;12.70;99.90;;;;;;4991880;28;20124;-68
2021/10/07 08:43:25;;;;;;;1.30;0.30;;;12.70;99.90;;;;;;4992218;28;20103;-69
2021/10/07 08:45:52;;;;;;;0.90;0.20;;;13.20;99.90;;;;;;4991499;28;20023;-69
2021/10/07 08:48:18;;;;;;;1.65;0.20;;;13.20;99.90;;;;;;4991446;28;20154;-69
2021/10/07 08:50:44;;;;;;;0.80;0.20;;;13.00;99.90;;;;;;4991270;28;20041;-69
2021/10/07 08:53:10;;;;;;;0.20;0.20;;;12.90;99.90;;;;;;4991884;28;20023;-69
2021/10/07 08:55:36;;;;;;;0.17;0.17;;;12.90;99.90;;;;;;4991347;28;20409;-69
2021/10/07 08:58:01;;;;;;;0.22;0.22;;;12.80;99.90;;;;;;4991217;28;20022;-69
2021/10/07 09:00:27;;;;;;;0.17;0.17;;;13.00;99.90;;;;;;4991504;28;20044;-69
2021/10/07 09:02:53;;;;;;;0.20;0.20;;;12.90;99.90;;;;;;4990185;28;20079;-69
2021/10/07 09:05:23;;;;;;;0.10;0.10;;;12.80;99.90;;;;;;4991033;28;20073;-70
2021/10/07 09:08:09;;;;;;;0.57;0.25;;;12.60;99.90;;;;;;4991318;28;20072;-69
2021/10/07 09:10:46;;;;;;;0.90;0.20;;;12.60;99.90;;;;;;4991311;28;20072;-69
2021/10/07 09:13:25;;;;;;;0.20;0.20;;;12.50;99.90;;;;;;4991349;28;20075;-69
2021/10/07 09:15:57;;;;;;;0.47;0.20;;;12.40;99.90;;;;;;4990102;28;20441;-69
2021/10/07 09:18:24;;;;;;;0.80;0.20;;;12.40;99.90;;;;;;4991316;28;20478;-69
2021/10/07 09:20:52;;;;;;;0.20;0.20;;;12.40;99.90;;;;;;4990957;28;20039;-69
2021/10/07 09:23:18;;;;;;;0.20;0.20;;;12.40;99.90;;;;;;4991046;28;20482;-69
2021/10/07 09:26:11;;;;;;;0.30;0.30;;;12.40;99.90;;;;;;4990973;28;20026;-69
2021/10/07 09:28:56;;;;;;;0.20;0.20;;;12.50;99.90;;;;;;4978972;28;20050;-69
2021/10/07 09:31:23;;;;;;;0.65;0.30;;;12.50;99.90;;;;;;4976440;28;20073;-69
2021/10/07 09:33:53;;;;;;;1.55;0.20;;;12.50;99.90;;;;;;4990990;28;20371;-69
2021/10/07 09:36:20;;;;;;;0.20;0.20;;;12.50;99.90;;;;;;4990887;28;20022;-69
2021/10/07 09:38:48;;;;;;;0.20;0.20;;;12.50;99.90;;;;;;4991087;28;20386;-69
2021/10/07 09:41:17;;;;;;;0.50;0.20;;;12.50;99.90;;;;;;4991236;28;20355;-69
2021/10/07 09:43:46;;;;;;;0.20;0.20;;;12.50;99.90;;;;;;4990512;28;20030;-69
2021/10/07 09:46:11;;;;;;;0.10;0.10;;;12.50;99.90;;;;;;4989641;28;20054;-69
2021/10/07 09:48:39;;;;;;;1.17;0.20;;;12.50;99.90;;;;;;4990866;28;20115;-69
2021/10/07 09:51:13;;;;;;;0.20;0.20;;;12.50;99.90;;;;;;4990698;28;20029;-69
2021/10/07 09:53:43;;;;;;;1.63;0.20;;;12.40;99.90;;;;;;4989435;28;20025;-69
2021/10/07 09:56:24;;;;;;;1.95;0.20;;;12.40;99.90;;;;;;4990839;28;20085;-69
2021/10/07 09:58:50;;;;;;;0.10;0.10;;;12.40;99.90;;;;;;4990607;28;20034;-69
2021/10/07 10:01:16;;;;;;;0.20;0.20;;;12.40;99.90;;;;;;4990683;28;20492;-69
2021/10/07 10:03:42;;;;;;;3.70;1.00;;;12.40;99.90;;;;;;4990402;28;20022;-70
2021/10/07 10:06:08;;;;;;;0.40;0.20;;;12.40;99.90;;;;;;4989973;28;20022;-69
2021/10/07 10:08:34;;;;;;;0.20;0.20;;;12.40;99.90;;;;;;4990376;28;20099;-69
2021/10/07 10:11:00;;;;;;;1.98;0.20;;;12.40;99.90;;;;;;4989735;28;20030;-69
2021/10/07 10:13:27;;;;;;;0.20;0.20;;;12.40;99.90;;;;;;4990062;28;20034;-69
2021/10/07 10:15:53;;;;;;;0.20;0.20;;;12.40;99.90;;;;;;4990075;28;20030;-69
2021/10/07 10:18:18;;;;;;;0.63;0.20;;;12.40;99.90;;;;;;4990001;28;20501;-69
2021/10/07 10:20:51;;;;;;;1.83;0.20;;;12.50;99.90;;;;;;4988645;28;20037;-69
2021/10/07 10:23:24;;;;;;;3.00;0.28;;;12.60;99.90;;;;;;4990353;28;20071;-69
2021/10/07 10:25:54;;;;;;;0.85;0.15;;;12.60;99.90;;;;;;4990488;28;20508;-68
2021/10/07 10:28:38;;;;;;;1.85;0.20;;;12.70;99.90;;;;;;4990041;28;20034;-68
2021/10/07 10:31:07;;;;;;;2.22;0.20;;;12.70;99.90;;;;;;4988782;28;20038;-68
2021/10/07 10:33:35;;;;;;;0.63;0.20;;;12.70;99.90;;;;;;4989364;28;20054;-69
2021/10/07 10:36:01;;;;;;;0.20;0.20;;;12.80;99.90;;;;;;4989881;28;20469;-68
2021/10/07 10:38:28;;;;;;;0.25;0.25;;;12.90;99.90;;;;;;4988520;28;20034;-68
2021/10/07 10:41:07;;;;;;;3.35;0.20;;;12.90;99.90;;;;;;4990204;28;20069;-68
2021/10/07 10:43:34;;;;;;;0.32;0.20;;;12.90;99.90;;;;;;4989962;28;20041;-68
2021/10/07 10:46:06;;;;;;;0.20;0.20;;;12.90;99.90;;;;;;4989919;28;20474;-68
2021/10/07 10:48:41;;;;;;;4.07;0.57;;;12.90;99.90;;;;;;4989904;28;20031;-68
2021/10/07 10:51:11;;;;;;;1.65;0.20;;;13.20;99.90;;;;;;4977030;28;20031;-69
2021/10/07 10:53:59;;;;;;;0.10;0.10;;;13.70;99.90;;;;;;4988162;28;20441;-69
2021/10/07 10:56:28;;;;;;;0.85;0.20;;;13.40;99.90;;;;;;4983587;28;20050;-69
2021/10/07 10:59:14;;;;;;;0.43;0.20;;;13.20;99.90;;;;;;4984425;28;20023;-69
2021/10/07 11:01:40;;;;;;;0.52;0.20;;;13.00;99.90;;;;;;4989619;28;20030;-68
2021/10/07 11:04:10;;;;;;;0.85;0.25;;;12.90;99.90;;;;;;4989696;28;20026;-68
2021/10/07 11:07:24;;;;;;;0.22;0.20;;;12.80;99.90;;;;;;4989835;28;20026;-68
2021/10/07 11:10:01;;;;;;;0.45;0.30;;;12.70;99.90;;;;;;4968812;28;20070;-68
2021/10/07 11:12:32;;;;;;;0.32;0.20;;;12.70;99.90;;;;;;4989314;28;20137;-68
2021/10/07 11:14:58;;;;;;;0.28;0.13;;;12.70;99.90;;;;;;4989321;28;20442;-68
2021/10/07 11:17:27;;;;;;;0.45;0.13;;;12.70;99.90;;;;;;4980145;28;20118;-68
2021/10/07 11:19:53;;;;;;;0.47;0.30;;;12.70;99.90;;;;;;4982750;28;20446;-68
2021/10/07 11:22:19;;;;;;;1.52;0.30;;;12.70;99.90;;;;;;4986557;28;20054;-66
2021/10/07 11:24:54;;;;;;;0.52;0.30;;;12.70;99.90;;;;;;4982140;28;20024;-66
2021/10/07 11:27:35;;;;;;;1.10;0.17;;;12.70;99.90;;;;;;4989260;28;20366;-66
2021/10/07 11:30:04;;;;;;;0.38;0.20;;;12.70;99.90;;;;;;4988995;28;20109;-66
2021/10/07 11:32:31;;;;;;;0.67;0.30;;;12.70;99.90;;;;;;4989119;28;20050;-66
2021/10/07 11:35:09;;;;;;;6.32;0.63;;;12.80;99.90;;;;;;4988963;28;20030;-66
2021/10/07 11:37:55;;;;;;;0.30;0.20;;;12.80;99.90;;;;;;4989120;28;20027;-66
2021/10/07 11:40:26;;;;;;;1.23;0.30;;;12.90;99.90;;;;;;4988999;28;20027;-66
2021/10/07 11:42:56;;;;;;;0.82;0.20;;;12.90;99.90;;;;;;4989187;28;20045;-66
2021/10/07 11:45:26;;;;;;;0.28;0.20;;;13.00;99.90;;;;;;4989470;28;20018;-67
2021/10/07 11:47:53;;;;;;;0.68;0.20;;;13.10;99.90;;;;;;4989017;28;20046;-66
2021/10/07 11:50:21;;;;;;;0.47;0.20;;;13.10;99.90;;;;;;4988885;28;20077;-67
2021/10/07 11:52:49;;;;;;;1.60;0.30;;;13.20;99.90;;;;;;4988950;28;20023;-66
2021/10/07 11:55:18;;;;;;;0.47;0.20;;;13.30;99.90;;;;;;4989112;28;20086;-66
2021/10/07 11:57:51;;;;;;;1.52;0.38;;;13.30;99.90;;;;;;4989168;28;20151;-66
2021/10/07 12:00:37;;;;;;;0.20;0.20;;;13.40;99.90;;;;;;4988933;28;20034;-66
2021/10/07 12:03:28;;;;;;;1.17;0.17;;;13.50;99.90;;;;;;4976339;28;20025;-67
2021/10/07 12:06:07;;;;;;;0.55;0.20;;;13.50;99.90;;;;;;4992836;28;20035;-66
2021/10/07 12:08:45;;;;;;;0.20;0.20;;;13.50;99.90;;;;;;4988903;28;20030;-66
2021/10/07 12:11:15;;;;;;;0.35;0.25;;;13.50;99.90;;;;;;4991700;28;20031;-66
2021/10/07 12:13:45;;;;;;;0.57;0.20;;;13.50;99.90;;;;;;4992602;28;20105;-66
2021/10/07 12:16:16;;;;;;;1.70;0.43;;;13.60;99.90;;;;;;4989597;28;20070;-68
2021/10/07 12:18:46;;;;;;;0.63;0.10;;;13.50;99.90;;;;;;4992190;28;20029;-68
2021/10/07 12:21:14;;;;;;;0.25;0.20;;;13.60;99.90;;;;;;4991955;28;20036;-68
2021/10/07 12:23:57;;;;;;;0.20;0.20;;;13.60;99.90;;;;;;4992237;28;20125;-68
2021/10/07 12:26:32;;;;;;;2.55;0.30;;;13.50;99.90;;;;;;4992077;28;20023;-67
2021/10/07 12:29:01;;;;;;;5.78;0.40;;;13.40;99.90;;;;;;4991996;28;20040;-68
2021/10/07 12:31:30;;;;;;;3.70;0.20;;;13.40;99.90;;;;;;4991915;28;20023;-67
2021/10/07 12:34:08;;;;;;;0.20;0.20;;;13.40;99.90;;;;;;4991885;28;20103;-68
2021/10/07 12:36:37;;;;;;;0.38;0.20;;;13.40;99.90;;;;;;4991657;28;20159;-68
2021/10/07 12:39:05;;;;;;;3.30;0.57;;;13.40;99.90;;;;;;4991605;28;20029;-68
2021/10/07 12:41:40;;;;;;;0.85;0.40;;;13.40;99.90;;;;;;4991778;28;20061;-68
2021/10/07 12:44:08;;;;;;;1.90;0.38;;;13.40;99.90;;;;;;4990972;28;20068;-68
2021/10/07 12:46:48;;;;;;;0.35;0.35;;;13.30;99.90;;;;;;4989668;28;20027;-68
2021/10/07 12:49:15;;;;;;;0.95;0.20;;;13.30;99.90;;;;;;4984115;28;20042;-68
2021/10/07 12:51:46;;;;;;;2.55;0.20;;;13.30;99.90;;;;;;4985398;28;20137;-67
2021/10/07 12:54:15;;;;;;;1.17;0.50;;;13.30;99.90;;;;;;4983068;28;20064;-68
2021/10/07 12:56:43;;;;;;;0.43;0.20;;;13.30;99.90;;;;;;4985029;28;20163;-68
2021/10/07 12:59:09;;;;;;;0.40;0.20;;;13.30;99.90;;;;;;4985877;28;20075;-67
2021/10/07 13:01:41;;;;;;;1.27;0.30;;;13.20;99.90;;;;;;4984581;28;20445;-67
2021/10/07 13:04:23;;;;;;;0.30;0.30;;;13.20;99.90;;;;;;4984531;28;20075;-67
2021/10/07 13:07:06;;;;;;;0.25;0.20;;;13.20;99.90;;;;;;4980700;28;20459;-67
2021/10/07 13:09:32;;;;;;;0.20;0.20;;;13.20;99.90;;;;;;4987362;28;20036;-68
2021/10/07 13:11:57;;;;;;;0.20;0.20;;;13.20;99.90;;;;;;4989461;28;20015;-68
2021/10/07 13:14:23;;;;;;;0.57;0.20;;;13.20;99.90;;;;;;4987934;28;20462;-67
2021/10/07 13:16:49;;;;;;;1.30;0.20;;;13.20;99.90;;;;;;4985438;28;20027;-68
2021/10/07 13:19:15;;;;;;;0.50;0.30;;;13.20;99.90;;;;;;4985392;28;20027;-67
2021/10/07 13:21:42;;;;;;;2.13;0.30;;;13.10;99.90;;;;;;4988047;28;20109;-67
2021/10/07 13:24:08;;;;;;;0.32;0.17;;;13.10;99.90;;;;;;4987757;28;20053;-68